Relevés horaires Semmerzake (Belgique)


Relevés horaires à Semmerzake - Mardi 01 Juin 2021
Heure UTC1 Température [°C] Vent [km/h] Hum. [%] Pres.4 [hPa] Visi. [Km] Nébu. [octa] Préc.5 [mm] Cond.
2m. Res. Ros. Dir.2 Vit. Moy. Raf.3
23:00 18.1 18.1 7.8 NNO 3.7 -- 5.6 51 1013.7(0.5/3h) 20 -- -- --
22:00 18.7 18.7 7.9 NNO 1.9 -- 7.4 49 1013.6(0.6/3h) 20 -- -- --
21:00 19.6 19.6 8.2 NNO 1.9 -- 9.3 48 1013.5(0.4/3h) 20 -- -- --
20:00 20.5 20.5 8.3 ENE 3.7 -- 9.3 45 1013.1(0.0/3h) 20 -- -- --
19:00 22.4 22.4 8.2 ENE 5.6 -- 9.3 40 1012.8(-0.4/3h) 19 -- -- --
18:00 24.1 24.1 7.4 E 3.7 -- 16.7 34 1012.8(-0.9/3h) 20 -- -- --
17:00 24.5 24.5 8.3 ESE 3.7 -- 13.0 36 1013(-1.1/3h) 19 -- -- --
16:00 24.3 24.3 8.6 ESE 5.6 -- 11.1 37 1013.2(-1.2/3h) 20 -- -- --
15:00 24.2 24.2 7.4 ESE 5.6 -- 16.7 34 1013.7(-1.1/3h) 20 -- -- --
14:00 23.6 23.6 6.8 ESE 7.4 -- 16.7 34 1014.2(-1.3/3h) 19 -- -- --
13:00 23.9 23.9 8.6 E 7.4 -- 14.8 38 1014.6(-1.3/3h) 20 -- -- --
12:00 22.6 22.6 6.2 ESE 9.3 -- 16.7 35 1015(-1.3/3h) 20 -- -- --
11:00 22.3 22.3 5.5 E 7.4 -- 16.7 34 1015.6(-1.1/3h) 14 -- -- --
10:00 21.8 21.8 7.0 ESE 7.4 -- 14.8 38 1016(-0.9/3h) 20 -- -- --
09:00 21.3 21.3 7.9 E 5.6 7.4 13.0 42 1016.3(-0.5/3h) 19 -- -- --
08:00 19.9 19.9 7.6 ESE 5.6 -- 7.4 45 1016.7(-0.5/3h) 20 -- -- --
07:00 18.7 18.7 8.5 ESE 3.7 -- 7.4 51 1017(-0.3/3h) 20 -- -- --
06:00 16.8 16.8 8.8 NNO 1.9 -- 7.4 59 1017.1(-0.5/3h) 20 -- -- --
05:00 14.7 14.7 8.1 NNO 1.9 -- 5.6 65 1017.2(-0.3/3h) 20 -- -- --
04:00 14.3 14.3 7.6 SSE 3.7 -- 5.6 64 1017.3(-0.2/3h) 19 -- -- --
03:00 14.1 14.1 8.5 NNO 3.7 -- 7.4 69 1017.7(-0.1/3h) 19 -- -- --
02:00 14.1 14.1 8.7 ESE 3.7 -- 7.4 70 1017.7(-0.2/3h) 19 -- -- --
01:00 15.2 15.2 8.9 E 3.7 -- 7.4 66 1017.6(-0.5/3h) 19 -- -- --
00:00 16.1 16.1 9.0 ENE 3.7 -- 9.3 63 1017.7(-0.4/3h) 20 -- -- --

1 Coordinated Universal Time. Actuellement il est 22:00 locale et 20:00 UTC.

2 Le vent souffle depuis la direction indiquée vers la direction oposée.

3 Les rafales max. sont disponible 40 min après l'heure du relevé.

4 Pour les stations d'altitude (plus de 600m) le géopotentiel du niveau le plus proche de la pression obligatoire est indiqué.

5 Les stations disposant d'un diffuseur peuvent indiquer "trace". Cela signifie que des précipitations ont touchés le sol mais que la quantité est inférieure à 0.1 mm.

Récapitulatif de la journée
Température [°C] Vent [km/h] Ensoleillement4 [h] Precipitations totale5 [mm] Pression [Hpa]
Min1 Max.2 Moy.3 Max. Min Max.
13.4 24.7 7.4 16.7 0 h 0 min 0 1012.8 1017.7

1 Température minimale relevée entre 18:00 UTC la veille et 18:00 UTC le jour donné.

2 Température maximale relevée entre 06:00 UTC le jour donné et 06:00 UTC le lendemain.

3 Vent moyen de la journée basé sur les relevés horaires.

4 Ensoleillement en heures relevé entre 06:00 UTC la veille et 06:00 UTC le jour donné.

5 Précipitations totales tombées entre 06:00 UTC la jour donné et 06:00 UTC le lendemain.

Graphiques horaires